createdAt,value
2023-05-15T03:01:48.501Z,8.81
2023-05-15T03:02:53.831Z,8.77
2023-05-15T03:03:55.541Z,8.77
2023-05-15T03:04:58.041Z,8.78
2023-05-15T03:06:00.765Z,8.79
2023-05-15T03:07:03.346Z,8.79
2023-05-15T03:08:05.418Z,8.79
2023-05-15T03:09:08.019Z,8.81
2023-05-15T03:10:09.966Z,8.82
2023-05-15T03:11:12.460Z,8.82
2023-05-15T03:12:14.077Z,8.83
2023-05-15T03:13:18.981Z,8.83
2023-05-15T03:14:20.718Z,8.82
2023-05-15T03:15:23.358Z,8.83
2023-05-15T03:16:25.106Z,8.84
2023-05-15T03:17:27.654Z,8.83
2023-05-15T03:18:30.560Z,8.85
2023-05-15T03:19:32.997Z,8.84
2023-05-15T03:20:34.588Z,8.84
2023-05-15T03:21:37.105Z,8.87
2023-05-15T03:22:38.668Z,8.87
2023-05-15T03:23:41.205Z,8.87
2023-05-15T03:24:42.954Z,8.89
2023-05-15T03:25:45.552Z,8.88
2023-05-15T03:26:47.248Z,8.90
2023-05-15T03:27:49.717Z,8.93
2023-05-15T03:28:51.250Z,8.92
2023-05-15T03:29:53.707Z,8.94
2023-05-15T03:30:55.664Z,8.94
2023-05-15T03:31:58.334Z,8.93
2023-05-15T03:33:00.582Z,8.92
2023-05-15T03:34:04.468Z,8.91
2023-05-15T03:35:06.328Z,8.94
2023-05-15T03:36:08.917Z,8.94
2023-05-15T03:37:10.667Z,8.91
2023-05-15T03:38:13.183Z,8.87
2023-05-15T03:39:16.993Z,8.86
2023-05-15T03:40:19.463Z,8.86
2023-05-15T03:41:21.312Z,8.85
2023-05-15T03:42:24.799Z,8.87
2023-05-15T03:43:26.419Z,8.88
2023-05-15T03:44:29.507Z,8.91
2023-05-15T03:45:33.498Z,8.92
2023-05-15T03:46:35.973Z,8.94
2023-05-15T03:47:37.553Z,8.97
2023-05-15T03:48:40.088Z,8.99
2023-05-15T03:49:42.966Z,9.02
2023-05-15T03:50:46.205Z,9.03
2023-05-15T03:51:47.773Z,9.04
2023-05-15T03:52:50.297Z,9.04
2023-05-15T03:53:52.576Z,9.01
2023-05-15T03:54:58.584Z,8.98
2023-05-15T03:56:00.603Z,8.98
2023-05-15T03:57:04.230Z,9.00
2023-05-15T03:58:05.815Z,9.03
2023-05-15T03:59:09.710Z,9.03
2023-05-15T04:00:12.073Z,9.03
2023-05-15T04:01:18.601Z,9.03
2023-05-15T04:02:20.230Z,9.03
2023-05-15T04:03:22.888Z,9.05
2023-05-15T04:04:24.596Z,9.06
2023-05-15T04:05:28.559Z,9.09
2023-05-15T04:06:30.281Z,9.13
2023-05-15T04:07:33.950Z,9.15
2023-05-15T04:08:35.601Z,9.17
2023-05-15T04:09:38.608Z,9.20
2023-05-15T04:10:40.137Z,9.24
2023-05-15T04:11:42.627Z,9.24
2023-05-15T04:12:44.284Z,9.21
2023-05-15T04:13:46.778Z,9.20
2023-05-15T04:14:48.302Z,9.20
2023-05-15T04:15:50.752Z,9.20
2023-05-15T04:16:52.368Z,9.22
2023-05-15T04:17:55.373Z,9.24
2023-05-15T04:18:56.988Z,9.27
2023-05-15T04:19:59.611Z,9.30
2023-05-15T04:21:02.412Z,9.33
2023-05-15T04:22:05.172Z,9.37
2023-05-15T04:23:06.944Z,9.39
2023-05-15T04:24:09.436Z,9.41
2023-05-15T04:25:13.498Z,9.44
2023-05-15T04:26:16.346Z,9.46
2023-05-15T04:27:19.965Z,9.48
2023-05-15T04:28:22.568Z,9.50
2023-05-15T04:29:24.286Z,9.51
2023-05-15T04:30:26.827Z,9.57
2023-05-15T04:31:28.791Z,9.59
2023-05-15T04:32:33.647Z,9.62
2023-05-15T04:33:36.144Z,9.65
2023-05-15T04:34:37.748Z,9.61
2023-05-15T04:35:40.834Z,9.62
2023-05-15T04:36:43.980Z,9.64
2023-05-15T04:37:46.841Z,9.66
2023-05-15T04:38:48.462Z,9.67
2023-05-15T04:39:51.128Z,9.73
2023-05-15T04:40:52.728Z,9.75
2023-05-15T04:41:55.618Z,9.79
2023-05-15T04:42:57.456Z,9.82
2023-05-15T04:43:59.983Z,9.86
2023-05-15T04:45:02.319Z,9.93
2023-05-15T04:46:05.129Z,9.98
2023-05-15T04:47:06.825Z,10.04
2023-05-15T04:48:09.414Z,10.07
2023-05-15T04:49:10.986Z,10.13
2023-05-15T04:50:13.480Z,10.16
2023-05-15T04:51:16.693Z,10.20
2023-05-15T04:52:20.634Z,10.21
2023-05-15T04:53:22.238Z,10.24
2023-05-15T04:54:24.748Z,10.26
2023-05-15T04:55:26.680Z,10.27
2023-05-15T04:56:29.373Z,10.31
2023-05-15T04:57:30.967Z,10.35
2023-05-15T04:58:33.512Z,10.36
2023-05-15T04:59:35.528Z,10.40
2023-05-15T07:14:02.743Z,15.04
2023-05-15T07:15:08.637Z,15.10
2023-05-15T07:16:11.174Z,15.13
2023-05-15T07:17:13.625Z,15.21
2023-05-15T07:18:15.253Z,15.30
2023-05-15T07:19:20.801Z,15.39
2023-05-15T07:20:24.307Z,15.51
2023-05-15T07:21:27.558Z,15.63
2023-05-15T07:22:31.460Z,15.70
2023-05-15T07:23:35.494Z,15.75
2023-05-15T07:24:40.393Z,15.75
2023-05-15T07:25:45.277Z,15.71
2023-05-15T07:26:58.152Z,15.72
2023-05-15T07:28:02.159Z,15.75
2023-05-15T07:29:05.692Z,15.73
2023-05-15T07:30:11.237Z,15.64
2023-05-15T07:31:12.964Z,15.60
2023-05-15T07:32:15.549Z,15.56
2023-05-15T07:33:17.253Z,15.62
2023-05-15T07:34:19.766Z,15.70
2023-05-15T07:35:21.457Z,15.80
2023-05-15T07:36:24.207Z,15.87
2023-05-15T07:37:26.867Z,15.93
2023-05-15T07:38:28.495Z,15.97
2023-05-15T07:39:31.159Z,16.02
2023-05-15T07:40:33.057Z,16.02
2023-05-15T07:41:35.658Z,16.06
2023-05-15T07:42:39.530Z,16.08
2023-05-15T07:43:41.167Z,16.13
2023-05-15T07:44:45.453Z,16.10
2023-05-15T07:45:50.635Z,16.02
2023-05-15T07:46:52.404Z,15.92
2023-05-15T07:47:55.574Z,15.94
2023-05-15T07:48:57.263Z,15.95
2023-05-15T07:49:59.722Z,16.09
2023-05-15T07:51:01.707Z,16.23
2023-05-15T07:52:04.688Z,16.37
2023-05-15T07:53:06.503Z,16.54
2023-05-15T07:54:09.393Z,16.66
2023-05-15T07:55:13.242Z,16.72
2023-05-15T07:56:14.927Z,16.82
2023-05-15T07:57:18.210Z,16.90
2023-05-15T07:58:19.987Z,17.00
2023-05-15T07:59:22.750Z,17.07
2023-05-15T08:00:24.433Z,17.08
2023-05-15T08:01:29.998Z,17.12
2023-05-15T08:02:32.536Z,17.12
2023-05-15T08:03:35.314Z,17.11
2023-05-15T08:04:38.376Z,17.00
2023-05-15T08:05:40.623Z,16.79
2023-05-15T08:06:44.495Z,16.74
2023-05-15T08:07:47.403Z,16.65
2023-05-15T08:08:49.877Z,16.52
2023-05-15T08:09:51.846Z,16.51
2023-05-15T08:10:54.408Z,16.51
2023-05-15T08:11:57.807Z,16.45
2023-05-15T08:12:59.522Z,16.54
2023-05-15T08:14:01.969Z,16.48
2023-05-15T08:15:04.208Z,16.52
2023-05-15T08:16:07.214Z,16.60
2023-05-15T08:17:10.250Z,16.63
2023-05-15T08:18:13.926Z,16.80
2023-05-15T08:19:15.634Z,16.91
2023-05-15T08:20:18.307Z,17.07
2023-05-15T08:21:20.928Z,17.16
2023-05-15T08:22:22.581Z,17.29
2023-05-15T08:23:25.173Z,17.36
2023-05-15T08:24:26.835Z,17.39
2023-05-15T08:25:29.343Z,17.46
2023-05-15T08:26:31.333Z,17.56
2023-05-15T08:27:33.942Z,17.70
2023-05-15T08:28:36.460Z,17.74
2023-05-15T08:29:39.715Z,17.79
2023-05-15T08:30:42.345Z,17.85
2023-05-15T08:31:45.080Z,17.90
2023-05-15T08:32:49.409Z,17.96
2023-05-15T08:33:51.023Z,18.03
2023-05-15T08:34:53.847Z,18.10
2023-05-15T08:35:55.531Z,18.14
2023-05-15T08:36:59.487Z,18.22
2023-05-15T08:38:01.048Z,18.24
2023-05-15T08:39:03.533Z,18.31
2023-05-15T08:40:07.719Z,18.33
2023-05-15T08:41:18.163Z,18.34
2023-05-15T08:42:29.075Z,18.27
2023-05-15T08:43:35.753Z,18.29
2023-05-15T08:44:39.184Z,18.24
2023-05-15T08:45:41.388Z,18.30
2023-05-15T08:46:44.533Z,18.36
2023-05-15T08:47:46.329Z,18.43
2023-05-15T08:48:53.203Z,18.51
2023-05-15T08:50:01.234Z,18.41
2023-05-15T08:51:04.401Z,18.37
2023-05-15T08:52:06.527Z,18.47
2023-05-15T08:53:09.329Z,18.54
2023-05-15T08:54:12.300Z,18.56
2023-05-15T08:55:15.571Z,18.51
2023-05-15T08:56:18.216Z,18.55
2023-05-15T08:57:21.188Z,18.64
2023-05-15T08:58:26.030Z,18.68
2023-05-15T08:59:28.194Z,18.66
2023-05-15T09:00:31.328Z,18.68
2023-05-15T09:01:33.922Z,18.76
2023-05-15T09:02:37.201Z,18.79
2023-05-15T09:03:38.988Z,18.88
2023-05-15T09:04:42.989Z,18.98
2023-05-15T09:05:46.588Z,19.05
2023-05-15T09:06:48.688Z,19.18
2023-05-15T09:07:52.720Z,19.35
2023-05-15T09:08:56.304Z,19.39
2023-05-15T09:09:59.619Z,19.40
2023-05-15T09:11:03.724Z,19.51
2023-05-15T09:12:11.784Z,19.61
2023-05-15T09:13:15.521Z,19.58
2023-05-15T09:14:18.391Z,19.55
2023-05-15T09:15:25.559Z,19.54
2023-05-15T09:16:27.766Z,19.51
2023-05-15T09:17:30.919Z,19.41
2023-05-15T09:18:33.522Z,19.44
2023-05-15T09:19:36.564Z,19.42
2023-05-15T09:20:39.590Z,19.49
2023-05-15T09:21:42.118Z,19.52
2023-05-15T09:22:44.776Z,19.49
2023-05-15T09:23:47.726Z,19.53
2023-05-15T09:24:52.238Z,19.57
2023-05-15T09:25:56.607Z,19.54
2023-05-15T09:27:03.796Z,19.48
2023-05-15T09:28:06.706Z,19.46
2023-05-15T09:29:08.979Z,19.52
2023-05-15T09:30:12.230Z,19.69
2023-05-15T09:31:20.342Z,19.87
2023-05-15T09:32:22.469Z,19.99
2023-05-15T09:33:29.526Z,20.21
2023-05-15T09:34:34.012Z,20.32
2023-05-15T09:35:38.137Z,20.30
2023-05-15T09:36:45.180Z,20.39
2023-05-15T09:37:47.641Z,20.54
2023-05-15T09:38:50.196Z,20.49
2023-05-15T09:39:51.986Z,20.34
2023-05-15T09:41:03.489Z,20.28
2023-05-15T09:42:07.897Z,20.41
2023-05-15T09:43:10.296Z,20.36
2023-05-15T09:44:21.838Z,20.35
2023-05-15T09:45:25.745Z,20.47
2023-05-15T09:46:28.580Z,20.54
2023-05-15T09:47:30.938Z,20.64
2023-05-15T09:48:33.807Z,20.71
2023-05-15T09:49:35.732Z,20.65
2023-05-15T09:50:40.852Z,20.68
2023-05-15T09:51:50.354Z,20.85
2023-05-15T09:52:53.149Z,20.94
2023-05-15T09:53:55.211Z,20.95
2023-05-15T09:54:58.094Z,20.94
2023-05-15T09:55:59.791Z,21.01
2023-05-15T09:57:09.086Z,20.99
2023-05-15T09:58:12.996Z,20.90
2023-05-15T09:59:16.054Z,20.83
2023-05-15T10:00:22.027Z,20.91
2023-05-15T10:01:25.133Z,20.95
2023-05-15T10:02:32.534Z,21.06
2023-05-15T10:03:34.375Z,21.05
2023-05-15T10:04:37.008Z,21.10
2023-05-15T10:05:43.764Z,21.15
2023-05-15T10:06:49.658Z,21.26
2023-05-15T10:07:54.681Z,21.17
2023-05-15T10:08:58.375Z,21.05
2023-05-15T10:10:02.178Z,20.78
2023-05-15T10:11:06.600Z,20.63
2023-05-15T10:12:10.219Z,20.65
2023-05-15T10:13:13.010Z,20.81
2023-05-15T10:14:18.330Z,21.00
2023-05-15T10:15:22.765Z,21.09
2023-05-15T10:16:26.333Z,21.13
2023-05-15T10:17:29.242Z,21.29
2023-05-15T10:24:35.438Z,20.05
2023-05-15T10:25:42.693Z,20.13
2023-05-15T10:26:45.774Z,20.23
2023-05-15T10:27:50.199Z,20.42
2023-05-15T10:28:55.131Z,20.60
2023-05-15T10:29:58.794Z,20.55
2023-05-15T10:31:03.325Z,20.52
2023-05-15T10:32:05.722Z,20.44
2023-05-15T10:33:09.489Z,20.20
2023-05-15T10:34:12.815Z,20.07
2023-05-15T10:36:53.963Z,19.57
2023-05-15T10:37:58.139Z,19.44
2023-05-15T10:41:22.355Z,19.27
2023-05-15T10:42:26.641Z,19.19
2023-05-15T10:43:30.161Z,19.25
2023-05-15T10:44:33.088Z,19.25
2023-05-15T10:45:36.174Z,19.32
2023-05-15T10:46:39.733Z,19.23
2023-05-15T10:47:43.620Z,19.03
2023-05-15T10:48:46.638Z,18.75
2023-05-15T10:49:49.858Z,18.68
2023-05-15T10:50:53.433Z,18.60
2023-05-15T10:51:56.532Z,18.49
2023-05-15T10:52:59.580Z,18.28
2023-05-15T10:54:03.925Z,18.23
2023-05-15T10:55:09.608Z,18.14
2023-05-15T10:56:16.653Z,18.08
2023-05-15T10:57:21.347Z,17.94
2023-05-15T10:58:24.888Z,17.93
2023-05-15T10:59:32.550Z,17.75
2023-05-15T11:00:42.140Z,17.72
2023-05-15T11:01:45.247Z,17.64
2023-05-15T11:02:48.522Z,17.59
2023-05-15T11:03:54.685Z,17.38
2023-05-15T11:04:58.736Z,17.26
2023-05-15T11:06:08.917Z,17.03
2023-05-15T11:07:15.207Z,17.00
2023-05-15T11:08:27.533Z,16.94
2023-05-15T11:09:36.655Z,16.81
2023-05-15T11:10:40.526Z,16.63
2023-05-15T11:11:57.374Z,16.42
2023-05-15T11:13:05.117Z,16.26
2023-05-15T11:14:13.156Z,16.05
2023-05-15T11:15:20.193Z,15.97
2023-05-15T11:16:53.292Z,15.93
2023-05-15T11:18:04.930Z,15.90
2023-05-15T11:19:22.853Z,15.89
2023-05-15T11:20:35.177Z,15.90
2023-05-15T11:21:46.435Z,15.88
2023-05-15T11:23:00.040Z,15.91
2023-05-15T11:24:07.484Z,15.91
2023-05-15T11:25:16.449Z,15.99
2023-05-15T11:26:35.138Z,16.07
2023-05-15T11:27:42.708Z,16.09
2023-05-15T11:28:47.384Z,16.08
2023-05-15T11:30:07.748Z,16.05
2023-05-15T11:31:10.408Z,16.13
2023-05-15T11:32:40.985Z,16.25
2023-05-15T11:33:43.641Z,16.39
2023-05-15T11:34:45.209Z,16.48
2023-05-15T11:35:48.959Z,16.59
2023-05-15T11:36:51.213Z,16.68
2023-05-15T11:37:55.383Z,16.83
2023-05-15T11:38:58.034Z,16.92
2023-05-15T11:40:00.658Z,17.11
2023-05-15T11:41:03.774Z,17.20
2023-05-15T11:42:12.045Z,17.15
2023-05-15T11:43:19.587Z,17.16
2023-05-15T11:44:23.459Z,17.30
2023-05-15T11:45:26.133Z,17.23
2023-05-15T11:46:29.049Z,17.25
2023-05-15T11:47:31.581Z,17.35
2023-05-15T11:48:35.853Z,17.49
2023-05-15T11:49:38.351Z,17.59
2023-05-15T11:50:41.975Z,17.63
2023-05-15T11:51:44.813Z,17.64
2023-05-15T11:52:46.996Z,17.86
2023-05-15T11:53:51.809Z,18.01
2023-05-15T11:54:54.616Z,18.16
2023-05-15T11:55:57.198Z,18.19
2023-05-15T11:56:58.872Z,18.26
2023-05-15T11:58:01.641Z,18.29
2023-05-15T11:59:04.117Z,18.30
2023-05-15T12:00:09.894Z,18.51
2023-05-15T12:01:13.158Z,18.65
2023-05-15T12:02:16.722Z,18.73
2023-05-15T12:03:23.701Z,18.80
2023-05-15T12:04:26.375Z,19.08
2023-05-15T12:05:28.125Z,19.33
2023-05-15T12:06:31.620Z,19.49
2023-05-15T12:07:37.106Z,19.76
2023-05-15T12:08:39.882Z,19.97
2023-05-15T12:09:42.950Z,19.98
2023-05-15T12:10:47.119Z,20.08
2023-05-15T12:11:51.505Z,20.29
2023-05-15T12:12:54.036Z,20.53
2023-05-15T12:13:56.835Z,20.77
2023-05-15T12:14:58.741Z,21.04
2023-05-15T12:16:04.915Z,21.21
2023-05-15T12:17:06.765Z,21.41
2023-05-15T12:18:09.875Z,21.61
2023-05-15T12:19:12.499Z,21.83
2023-05-15T12:20:18.631Z,22.12
2023-05-15T12:21:21.224Z,22.31
2023-05-15T12:22:22.821Z,22.43
2023-05-15T12:23:27.265Z,22.33
2023-05-15T12:24:28.917Z,22.45
2023-05-15T12:25:33.079Z,22.50
2023-05-15T12:26:36.386Z,22.65
2023-05-15T12:27:40.776Z,22.54
2023-05-15T12:28:43.471Z,22.38
2023-05-15T12:29:45.724Z,22.55
2023-05-15T12:30:48.902Z,22.70
2023-05-15T12:31:53.883Z,22.93
2023-05-15T12:33:00.779Z,23.08
2023-05-15T12:34:03.580Z,23.06
2023-05-15T12:35:06.980Z,23.05
2023-05-15T12:36:09.662Z,22.89
2023-05-15T12:37:13.129Z,22.63
2023-05-15T12:38:16.725Z,22.63
2023-05-15T12:39:19.276Z,22.58
2023-05-15T12:40:22.840Z,22.48
2023-05-15T12:41:27.348Z,22.27
2023-05-15T12:42:29.960Z,22.19
2023-05-15T12:43:33.157Z,22.26
2023-05-15T12:44:34.942Z,22.25
2023-05-15T12:45:39.921Z,22.29
2023-05-15T12:46:42.534Z,22.38
2023-05-15T12:47:48.850Z,22.42
2023-05-15T12:48:50.809Z,22.43
2023-05-15T12:49:57.068Z,22.53
2023-05-15T12:51:05.964Z,22.48
2023-05-15T12:52:08.492Z,22.44
2023-05-15T12:53:14.972Z,22.37
2023-05-15T12:54:18.214Z,22.45
2023-05-15T12:55:25.632Z,22.60
2023-05-15T12:56:30.462Z,22.73
2023-05-15T12:57:32.701Z,22.78
2023-05-15T12:58:35.562Z,22.70
2023-05-15T12:59:40.680Z,22.45
2023-05-15T13:00:45.981Z,22.33
2023-05-15T13:01:48.481Z,22.31
2023-05-15T13:02:54.388Z,22.37
2023-05-15T13:03:57.388Z,22.27
2023-05-15T13:05:01.877Z,22.23
2023-05-15T13:06:04.504Z,22.06
2023-05-15T13:07:06.784Z,22.09
2023-05-15T13:08:09.288Z,22.19
2023-05-15T13:09:11.032Z,21.97
2023-05-15T13:10:14.078Z,21.82
2023-05-15T13:11:18.209Z,21.64
2023-05-15T13:12:20.044Z,21.37
2023-05-15T13:13:22.538Z,21.26
2023-05-15T13:14:27.345Z,21.13
2023-05-15T13:15:32.361Z,20.98
2023-05-15T13:16:37.610Z,20.57
2023-05-15T13:17:39.970Z,20.34
2023-05-15T13:18:44.080Z,20.30
2023-05-15T13:19:46.597Z,20.31
2023-05-15T13:20:51.843Z,20.19
2023-05-15T13:21:54.055Z,20.22
2023-05-15T13:22:56.782Z,20.22
2023-05-15T13:23:59.341Z,20.15
2023-05-15T13:25:01.060Z,20.15
2023-05-15T13:26:03.555Z,20.07
2023-05-15T13:27:06.190Z,20.15
2023-05-15T13:28:11.115Z,20.19
2023-05-15T13:29:12.749Z,20.27
2023-05-15T13:30:15.677Z,20.35
2023-05-15T13:31:18.412Z,20.58
2023-05-15T13:32:20.011Z,20.85
2023-05-15T13:33:22.592Z,21.06
2023-05-15T13:34:26.341Z,21.29
2023-05-15T13:35:29.113Z,21.56
2023-05-15T13:36:31.972Z,21.79
2023-05-15T13:37:33.664Z,21.95
2023-05-15T13:38:36.200Z,22.08
2023-05-15T13:39:37.815Z,22.15
2023-05-15T13:40:40.612Z,22.26
2023-05-15T13:41:43.109Z,22.23
2023-05-15T13:42:44.821Z,22.23
2023-05-15T13:43:49.192Z,22.22
2023-05-15T13:44:51.037Z,22.27
2023-05-15T13:45:53.541Z,22.34
2023-05-15T13:46:56.041Z,22.40
2023-05-15T13:47:57.818Z,22.60
2023-05-15T13:49:00.917Z,22.65
2023-05-15T13:50:04.036Z,22.73
2023-05-15T13:51:06.748Z,22.76
2023-05-15T13:52:09.371Z,22.76
2023-05-15T13:53:12.319Z,22.74
2023-05-15T13:54:14.789Z,22.71
2023-05-15T13:55:17.254Z,22.60
2023-05-15T13:56:19.841Z,22.56
2023-05-15T13:57:22.772Z,22.51
2023-05-15T13:58:26.486Z,22.52
2023-05-15T13:59:28.176Z,22.57
2023-05-15T14:00:30.777Z,22.63
2023-05-15T14:01:33.298Z,22.46
2023-05-15T14:02:35.988Z,22.26
2023-05-15T14:03:38.790Z,22.00
2023-05-15T14:04:40.620Z,22.01
2023-05-15T14:05:44.411Z,22.11
2023-05-15T14:06:46.043Z,22.23
2023-05-15T14:07:48.587Z,22.32
2023-05-15T14:08:51.098Z,22.23
2023-05-15T14:09:52.713Z,22.28
2023-05-15T14:10:55.253Z,22.38
2023-05-15T14:11:56.895Z,22.37
2023-05-15T14:13:00.789Z,22.42
2023-05-15T14:14:03.767Z,22.53
2023-05-15T14:15:07.268Z,22.63
2023-05-15T14:16:09.768Z,22.66
2023-05-15T14:17:11.570Z,22.62
2023-05-15T14:18:14.289Z,22.58
2023-05-15T14:19:16.514Z,22.55
2023-05-15T14:20:19.185Z,22.37
2023-05-15T14:21:22.973Z,22.30
2023-05-15T14:22:25.575Z,22.12
2023-05-15T14:23:28.147Z,21.98
2023-05-15T14:24:29.876Z,21.93
2023-05-15T14:25:32.342Z,21.88
2023-05-15T14:26:34.020Z,21.81
2023-05-15T14:27:36.557Z,21.70
2023-05-15T14:28:39.164Z,21.52
2023-05-15T14:29:40.828Z,21.38
2023-05-15T14:30:43.266Z,21.31
2023-05-15T14:31:44.882Z,21.40
2023-05-15T14:32:47.470Z,21.30
2023-05-15T14:33:52.321Z,21.18
2023-05-15T14:34:54.250Z,21.06
2023-05-15T14:35:56.725Z,21.11
2023-05-15T14:36:59.626Z,21.27
2023-05-15T14:38:02.743Z,21.33
2023-05-15T14:39:04.423Z,21.45
2023-05-15T14:40:08.592Z,21.63
2023-05-15T14:41:10.359Z,21.87
2023-05-15T14:42:13.008Z,22.04
2023-05-15T14:43:14.640Z,22.12
2023-05-15T14:44:17.142Z,22.09
2023-05-15T14:45:19.848Z,22.00
2023-05-15T14:46:21.589Z,22.07
2023-05-15T14:47:25.205Z,22.20
2023-05-15T14:48:26.911Z,22.36
2023-05-15T14:49:29.434Z,22.24
2023-05-15T14:50:31.910Z,22.23
2023-05-15T14:51:33.693Z,22.14
2023-05-15T14:52:37.632Z,22.20
2023-05-15T14:53:39.299Z,22.26
2023-05-15T14:54:41.823Z,22.16
2023-05-15T14:55:44.359Z,21.94
2023-05-15T14:56:48.353Z,21.93
2023-05-15T14:57:50.832Z,22.05
2023-05-15T14:58:54.098Z,22.22
2023-05-15T14:59:56.731Z,22.22
2023-05-15T15:00:59.237Z,22.18
2023-05-15T15:02:01.098Z,22.17
2023-05-15T15:03:03.975Z,22.27
2023-05-15T15:04:06.867Z,22.29
2023-05-15T15:05:10.327Z,22.23
2023-05-15T15:06:12.092Z,22.13
2023-05-15T15:07:14.933Z,22.18
2023-05-15T15:08:18.011Z,22.23
2023-05-15T15:09:21.496Z,22.08
2023-05-15T15:10:23.604Z,22.04
2023-05-15T15:11:26.367Z,22.11
2023-05-15T15:12:28.966Z,21.97
2023-05-15T15:13:30.953Z,22.02
2023-05-15T15:14:33.544Z,21.91
2023-05-15T15:15:36.159Z,21.77
2023-05-15T15:16:37.826Z,21.78
2023-05-15T15:17:40.616Z,21.73
2023-05-15T15:18:43.571Z,21.89
2023-05-15T15:19:45.453Z,21.81
2023-05-15T15:20:48.020Z,21.75
2023-05-15T15:21:49.580Z,21.64
2023-05-15T15:22:52.687Z,21.45
2023-05-15T15:23:56.445Z,21.49
2023-05-15T15:25:00.928Z,21.43
2023-05-15T15:26:03.826Z,21.53
2023-05-15T15:27:06.823Z,21.67
2023-05-15T15:28:09.119Z,21.60
2023-05-15T15:29:11.682Z,21.60
2023-05-15T15:30:13.821Z,21.55
2023-05-15T15:31:16.644Z,21.42
2023-05-15T15:32:18.279Z,21.40
2023-05-15T15:33:20.784Z,21.40
2023-05-15T15:34:23.421Z,21.41
2023-05-15T15:35:25.171Z,21.47
2023-05-15T15:36:27.947Z,21.45
2023-05-15T15:37:30.683Z,21.45
2023-05-15T15:38:33.219Z,21.50
2023-05-15T15:39:36.158Z,21.53
2023-05-15T15:40:38.680Z,21.58
2023-05-15T15:41:40.326Z,21.55
2023-05-15T15:42:42.841Z,21.66
2023-05-15T15:43:44.482Z,21.67
2023-05-15T15:44:47.054Z,21.74
2023-05-15T15:45:49.631Z,21.80
2023-05-15T15:46:52.123Z,21.86
2023-05-15T15:47:54.219Z,21.95
2023-05-15T15:48:56.874Z,21.93
2023-05-15T15:49:58.838Z,21.84
2023-05-15T15:51:01.282Z,21.89
2023-05-15T15:52:03.125Z,21.94
2023-05-15T15:53:05.623Z,21.89
2023-05-15T15:54:07.339Z,21.92
2023-05-15T15:55:11.435Z,21.99
2023-05-15T15:56:13.994Z,22.03
2023-05-15T15:57:16.225Z,22.10
2023-05-15T15:58:19.636Z,22.19
2023-05-15T15:59:21.642Z,22.30
2023-05-15T16:00:24.578Z,22.34
2023-05-15T16:01:27.306Z,22.33
2023-05-15T16:02:29.043Z,22.23
2023-05-15T16:03:31.917Z,22.13
2023-05-15T16:04:33.604Z,22.03
2023-05-15T16:05:36.130Z,21.96
2023-05-15T16:06:37.752Z,21.96
2023-05-15T16:07:43.099Z,22.01
2023-05-15T16:08:44.720Z,22.11
2023-05-15T16:09:51.485Z,22.22
2023-05-15T16:11:03.967Z,22.09
2023-05-15T16:12:05.823Z,22.00
2023-05-15T16:13:08.479Z,22.04
2023-05-15T16:14:10.072Z,21.92
2023-05-15T16:15:22.262Z,21.62
2023-05-15T16:16:25.307Z,21.32
2023-05-15T16:17:27.884Z,21.05
2023-05-15T16:18:30.397Z,20.78
2023-05-15T16:19:32.178Z,20.56
2023-05-15T16:20:35.342Z,20.42
2023-05-15T16:21:37.199Z,20.30
2023-05-15T16:22:41.644Z,20.16
2023-05-15T16:23:45.513Z,19.99
2023-05-15T16:24:47.868Z,19.82
2023-05-15T16:25:50.359Z,19.71
2023-05-15T16:26:55.337Z,19.59
2023-05-15T16:27:57.990Z,19.56
2023-05-15T16:28:59.515Z,19.47
2023-05-15T16:30:02.137Z,19.43
2023-05-15T16:31:05.263Z,19.37
2023-05-15T16:32:08.158Z,19.34
2023-05-15T16:33:10.806Z,19.32
2023-05-15T16:34:12.776Z,19.26
2023-05-15T16:35:15.299Z,19.20
2023-05-15T16:36:17.911Z,19.18
2023-05-15T16:37:19.606Z,19.11
2023-05-15T16:38:22.809Z,19.10
2023-05-15T16:39:25.700Z,19.11
2023-05-15T16:40:28.407Z,19.08
2023-05-15T16:41:30.183Z,19.07
2023-05-15T16:42:38.071Z,19.08
2023-05-15T16:43:40.841Z,19.07
2023-05-15T16:44:42.450Z,19.06
2023-05-15T16:45:45.354Z,19.07
2023-05-15T16:46:47.103Z,19.03
2023-05-15T16:47:49.742Z,19.03
2023-05-15T16:48:51.473Z,19.06
2023-05-15T16:49:54.047Z,19.07
2023-05-15T16:50:56.730Z,19.05
2023-05-15T16:51:58.357Z,19.02
2023-05-15T16:53:00.899Z,19.03
2023-05-15T16:54:03.653Z,19.00
2023-05-15T16:55:06.108Z,18.99
2023-05-15T16:56:08.720Z,18.98
2023-05-15T16:57:10.487Z,18.95
2023-05-15T16:58:14.618Z,18.96
2023-05-15T16:59:16.514Z,18.97
2023-05-15T17:00:20.786Z,18.95
2023-05-15T17:01:22.542Z,18.93
2023-05-15T17:02:25.094Z,18.93
2023-05-15T17:03:26.933Z,18.92
2023-05-15T17:04:33.106Z,18.87
2023-05-15T17:05:34.948Z,18.85
2023-05-15T17:06:37.495Z,18.81
2023-05-15T17:07:39.098Z,18.77
2023-05-15T17:08:43.507Z,18.71
2023-05-15T17:09:46.388Z,18.66
2023-05-15T17:10:48.179Z,18.62
2023-05-15T17:11:50.760Z,18.56
2023-05-15T17:12:52.604Z,18.57
2023-05-15T17:13:56.730Z,18.53
2023-05-15T17:14:58.395Z,18.52
2023-05-15T17:16:01.227Z,18.54
2023-05-15T17:17:02.917Z,18.53
2023-05-15T17:18:06.084Z,18.53
2023-05-15T17:19:08.693Z,18.53
2023-05-15T17:20:12.311Z,18.49
2023-05-15T17:21:15.335Z,18.43
2023-05-15T17:22:17.148Z,18.37
2023-05-15T17:23:21.728Z,18.33
2023-05-15T17:24:25.018Z,18.30
2023-05-15T17:25:28.095Z,18.30
2023-05-15T17:26:30.880Z,18.28
2023-05-15T17:27:32.794Z,18.20
2023-05-15T17:28:37.913Z,18.18
2023-05-15T17:29:42.300Z,18.14
2023-05-15T17:30:45.028Z,18.15
2023-05-15T17:31:48.096Z,18.14
2023-05-15T17:32:50.964Z,18.09
2023-05-15T17:33:56.893Z,18.06
2023-05-15T17:34:59.525Z,18.06
2023-05-15T17:36:01.438Z,17.99
2023-05-15T17:37:04.337Z,17.97
2023-05-15T17:38:06.932Z,17.94
2023-05-15T17:39:08.669Z,17.90
2023-05-15T17:40:11.814Z,17.93
2023-05-15T17:41:13.521Z,17.95
2023-05-15T17:42:16.188Z,17.94
2023-05-15T17:43:17.965Z,17.94
2023-05-15T17:44:21.375Z,17.92
2023-05-15T17:45:26.948Z,17.91
2023-05-15T17:46:29.014Z,17.88
2023-05-15T17:47:31.903Z,17.87
2023-05-15T17:48:34.670Z,17.83
2023-05-15T17:49:37.908Z,17.79
2023-05-15T17:50:42.061Z,17.81
2023-05-15T17:51:43.854Z,17.81
2023-05-15T17:52:46.605Z,17.81
2023-05-15T17:53:49.491Z,17.82
2023-05-15T17:54:51.277Z,17.82
2023-05-15T17:55:54.133Z,17.78
2023-05-15T17:56:56.947Z,17.69
2023-05-15T17:57:58.807Z,17.67
2023-05-15T17:59:01.476Z,17.69
2023-05-15T18:00:06.991Z,17.65
2023-05-15T18:01:16.633Z,17.63
2023-05-15T18:02:18.496Z,17.59
2023-05-15T18:03:21.247Z,17.56
2023-05-15T18:04:23.065Z,17.54
2023-05-15T18:05:25.854Z,17.49
2023-05-15T18:06:28.441Z,17.46
2023-05-15T18:07:30.946Z,17.41
2023-05-15T18:08:32.584Z,17.36
2023-05-15T18:09:35.215Z,17.31
2023-05-15T18:10:36.814Z,17.24
2023-05-15T18:11:39.388Z,17.20
2023-05-15T18:12:40.970Z,17.15
2023-05-15T18:13:44.227Z,17.17
2023-05-15T18:14:45.994Z,17.19
2023-05-15T18:15:48.773Z,17.22
2023-05-15T18:16:51.734Z,17.23
2023-05-15T18:17:54.545Z,17.25
2023-05-15T18:18:56.329Z,17.26
2023-05-15T18:19:58.892Z,17.26
2023-05-15T18:21:00.542Z,17.27
2023-05-15T18:22:03.613Z,17.25
2023-05-15T18:23:05.257Z,17.23
2023-05-15T18:24:08.176Z,17.22
2023-05-15T18:25:10.955Z,17.11
2023-05-15T18:26:13.315Z,17.02
2023-05-15T18:27:16.189Z,16.99
2023-05-15T18:28:17.890Z,16.96
2023-05-15T18:29:20.463Z,16.94
2023-05-15T18:30:23.616Z,16.84
2023-05-15T18:31:25.290Z,16.76
2023-05-15T18:32:31.633Z,16.68
2023-05-15T18:33:33.866Z,16.68
2023-05-15T18:34:36.514Z,16.70
2023-05-15T18:35:38.605Z,16.72
2023-05-15T18:36:41.113Z,16.69
2023-05-15T18:37:42.700Z,16.67
2023-05-15T18:38:45.182Z,16.65
2023-05-15T18:39:47.922Z,16.63
2023-05-15T18:40:50.654Z,16.63
2023-05-15T18:41:52.305Z,16.61
2023-05-15T18:42:56.113Z,16.63
2023-05-15T18:43:57.816Z,16.64
2023-05-15T18:45:00.695Z,16.63
2023-05-15T18:46:02.521Z,16.62
2023-05-15T18:47:05.784Z,16.59
2023-05-15T18:48:09.164Z,16.52
2023-05-15T18:49:11.870Z,16.49
2023-05-15T18:50:14.052Z,16.46
2023-05-15T18:51:16.609Z,16.42
2023-05-15T18:52:18.879Z,16.37
2023-05-15T18:53:21.514Z,16.33
2023-05-15T18:54:23.340Z,16.31
2023-05-15T18:55:27.402Z,16.29
2023-05-15T18:56:29.315Z,16.26
2023-05-15T18:57:31.921Z,16.25
2023-05-15T18:58:34.573Z,16.24
2023-05-15T18:59:37.208Z,16.22
2023-05-15T19:00:39.878Z,16.20
2023-05-15T19:01:41.691Z,16.18
2023-05-15T19:02:45.004Z,16.15
2023-05-15T19:03:48.208Z,16.12